createdAt,value
2023-02-12T00:01:18.886Z,99435.75
2023-02-12T00:03:49.248Z,99433.03
2023-02-12T00:06:16.628Z,99433.00
2023-02-12T00:08:43.900Z,99428.44
2023-02-12T00:11:19.605Z,99432.69
2023-02-12T00:13:47.328Z,99420.22
2023-02-12T00:16:17.416Z,99439.69
2023-02-12T00:18:45.489Z,99445.03
2023-02-12T00:21:14.193Z,99447.84
2023-02-12T00:23:41.668Z,99446.13
2023-02-12T00:26:20.719Z,99447.84
2023-02-12T00:28:50.688Z,99441.50
2023-02-12T00:31:23.764Z,99430.88
2023-02-12T00:33:51.130Z,99434.34
2023-02-12T00:36:24.227Z,99435.34
2023-02-12T00:38:53.225Z,99424.00
2023-02-12T00:41:20.433Z,99424.03
2023-02-12T00:43:47.616Z,99437.38
2023-02-12T00:46:14.914Z,99435.56
2023-02-12T00:48:44.013Z,99432.19
2023-02-12T00:51:11.620Z,99430.47
2023-02-12T00:53:38.871Z,99431.50
2023-02-12T00:56:07.578Z,99415.00
2023-02-12T00:58:34.612Z,99429.78
2023-02-12T01:01:02.062Z,99410.41
2023-02-12T01:03:29.086Z,99406.78
2023-02-12T01:05:57.704Z,99406.25
2023-02-12T01:08:25.060Z,99415.88
2023-02-12T01:11:01.100Z,99404.56
2023-02-12T01:13:30.629Z,99407.06
2023-02-12T01:16:04.819Z,99405.53
2023-02-12T01:18:31.952Z,99404.63
2023-02-12T01:20:59.476Z,99407.59
2023-02-12T01:23:26.623Z,99413.63
2023-02-12T01:25:53.925Z,99405.72
2023-02-12T01:28:21.312Z,99407.50
2023-02-12T01:30:48.372Z,99402.41
2023-02-12T01:33:15.424Z,99402.28
2023-02-12T01:35:42.495Z,99390.63
2023-02-12T01:38:09.708Z,99403.59
2023-02-12T01:40:37.609Z,99395.84
2023-02-12T01:43:04.815Z,99393.06
2023-02-12T01:45:37.696Z,99387.13
2023-02-12T01:48:05.198Z,99387.22
2023-02-12T01:50:32.218Z,99381.72
2023-02-12T01:52:59.937Z,99383.53
2023-02-12T01:55:27.945Z,99383.63
2023-02-12T01:57:54.987Z,99384.28
2023-02-12T02:00:25.112Z,99387.69
2023-02-12T02:02:55.496Z,99391.97
2023-02-12T02:05:41.373Z,99376.97
2023-02-12T02:08:10.803Z,99377.09
2023-02-12T02:10:37.812Z,99380.56
2023-02-12T02:13:23.568Z,99382.25
2023-02-12T02:15:57.908Z,99376.97
2023-02-12T02:18:53.968Z,99378.09
2023-02-12T02:22:33.334Z,99381.28
2023-02-12T02:25:20.339Z,99387.28
2023-02-12T02:27:59.219Z,99393.09
2023-02-12T02:30:45.564Z,99389.63
2023-02-12T02:33:21.580Z,99380.53
2023-02-12T02:36:04.408Z,99375.03
2023-02-12T02:39:05.496Z,99382.13
2023-02-12T02:41:43.524Z,99377.50
2023-02-12T02:44:16.760Z,99376.66
2023-02-12T02:46:49.350Z,99386.53
2023-02-12T02:49:48.490Z,99397.88
2023-02-12T02:52:20.855Z,99389.66
2023-02-12T02:54:55.950Z,99398.38
2023-02-12T02:57:31.950Z,99386.81
2023-02-12T03:00:05.896Z,99389.41
2023-02-12T03:02:37.512Z,99387.75
2023-02-12T03:05:19.043Z,99377.06
2023-02-12T03:07:52.711Z,99385.72
2023-02-12T03:10:31.858Z,99392.06
2023-02-12T03:13:07.496Z,99398.97
2023-02-12T03:15:41.335Z,99400.84
2023-02-12T03:18:13.996Z,99390.06
2023-02-12T03:20:50.658Z,99391.41
2023-02-12T03:23:25.247Z,99381.50
2023-02-12T03:26:10.084Z,99391.69
2023-02-12T03:28:39.119Z,99399.91
2023-02-12T03:31:12.495Z,99398.13
2023-02-12T03:33:54.722Z,99388.13
2023-02-12T03:36:42.987Z,99385.59
2023-02-12T03:39:47.562Z,99388.59
2023-02-12T03:42:23.367Z,99383.09
2023-02-12T03:44:50.368Z,99378.03
2023-02-12T03:47:26.414Z,99403.22
2023-02-12T03:50:09.558Z,99400.66
2023-02-12T03:52:37.112Z,99404.69
2023-02-12T03:55:05.669Z,99398.88
2023-02-12T03:57:39.904Z,99386.44
2023-02-12T04:00:12.734Z,99379.88
2023-02-12T04:02:44.071Z,99370.59
2023-02-12T04:05:28.994Z,99359.91
2023-02-12T04:07:58.675Z,99356.34
2023-02-12T04:11:07.239Z,99348.91
2023-02-12T04:13:36.965Z,99351.50
2023-02-12T04:16:37.926Z,99356.78
2023-02-12T04:19:06.430Z,99362.75
2023-02-12T04:21:36.476Z,99352.28
2023-02-12T04:24:16.923Z,99331.22
2023-02-12T04:26:59.019Z,99327.78
2023-02-12T04:29:48.439Z,99331.81
2023-02-12T04:32:18.313Z,99328.19
2023-02-12T04:35:08.907Z,99329.81
2023-02-12T04:37:51.841Z,99327.75
2023-02-12T04:40:20.945Z,99325.91
2023-02-12T04:42:50.895Z,99324.41
2023-02-12T04:45:33.578Z,99334.19
2023-02-12T04:48:01.618Z,99332.88
2023-02-12T04:50:39.278Z,99333.47
2023-02-12T04:53:06.638Z,99307.06
2023-02-12T04:55:33.774Z,99323.50
2023-02-12T04:58:02.441Z,99337.69
2023-02-12T05:00:29.645Z,99335.34
2023-02-12T05:02:56.968Z,99333.09
2023-02-12T05:05:24.842Z,99343.97
2023-02-12T05:07:52.119Z,99362.47
2023-02-12T05:10:20.293Z,99335.47
2023-02-12T05:12:47.612Z,99344.66
2023-02-12T05:15:14.637Z,99333.97
2023-02-12T05:17:42.078Z,99341.09
2023-02-12T05:20:09.524Z,99345.75
2023-02-12T05:22:36.524Z,99337.41
2023-02-12T05:25:04.199Z,99325.88
2023-02-12T05:27:32.029Z,99333.13
2023-02-12T05:29:58.974Z,99334.75
2023-02-12T05:32:26.254Z,99336.56
2023-02-12T05:34:53.473Z,99356.34
2023-02-12T05:37:20.807Z,99348.22
2023-02-12T05:39:50.579Z,99359.66
2023-02-12T05:42:18.263Z,99343.25
2023-02-12T05:44:45.210Z,99359.59
2023-02-12T05:47:12.423Z,99379.56
2023-02-12T05:49:39.843Z,99355.41
2023-02-12T05:52:07.430Z,99375.16
2023-02-12T05:54:34.384Z,99371.25
2023-02-12T05:57:01.894Z,99376.44
2023-02-12T05:59:28.851Z,99404.88
2023-02-12T06:01:56.041Z,99397.75
2023-02-12T06:04:25.922Z,99427.88
2023-02-12T06:06:55.911Z,99410.41
2023-02-12T06:09:24.287Z,99433.25
2023-02-12T06:11:52.124Z,99422.72
2023-02-12T06:14:20.936Z,99420.28
2023-02-12T06:16:49.717Z,99447.00
2023-02-12T06:19:17.304Z,99443.56
2023-02-12T06:21:45.247Z,99443.00
2023-02-12T06:24:17.225Z,99445.28
2023-02-12T06:26:44.641Z,99444.44
2023-02-12T06:29:13.426Z,99436.28
2023-02-12T06:31:40.687Z,99422.22
2023-02-12T06:34:10.442Z,99427.97
2023-02-12T06:36:42.646Z,99434.97
2023-02-12T06:39:09.724Z,99412.88
2023-02-12T06:41:36.895Z,99398.19
2023-02-12T06:44:05.164Z,99397.31
2023-02-12T06:46:32.536Z,99426.94
2023-02-12T06:49:00.966Z,99411.31
2023-02-12T06:51:29.700Z,99419.59
2023-02-12T06:53:57.406Z,99420.09
2023-02-12T06:56:25.861Z,99426.03
2023-02-12T06:58:56.034Z,99422.38
2023-02-12T07:01:26.159Z,99436.28
2023-02-12T07:03:55.998Z,99461.16
2023-02-12T07:06:23.961Z,99459.88
2023-02-12T07:08:50.962Z,99471.88
2023-02-12T07:11:18.752Z,99474.38
2023-02-12T07:13:46.757Z,99469.00
2023-02-12T07:16:16.302Z,99479.41
2023-02-12T07:18:44.899Z,99496.06
2023-02-12T07:21:13.582Z,99487.50
2023-02-12T07:23:40.888Z,99499.81
2023-02-12T07:26:15.063Z,99482.09
2023-02-12T07:28:42.543Z,99471.75
2023-02-12T07:31:15.391Z,99475.59
2023-02-12T07:33:43.105Z,99472.84
2023-02-12T07:36:13.028Z,99472.72
2023-02-12T07:38:40.594Z,99471.00
2023-02-12T07:41:13.416Z,99461.53
2023-02-12T07:43:45.133Z,99454.94
2023-02-12T07:46:17.369Z,99447.31
2023-02-12T07:48:45.805Z,99433.34
2023-02-12T07:51:16.150Z,99425.31
2023-02-12T07:53:43.412Z,99422.81
2023-02-12T07:56:15.105Z,99405.34
2023-02-12T07:58:45.394Z,99401.09
2023-02-12T08:01:21.571Z,99403.66
2023-02-12T08:03:50.142Z,99387.13
2023-02-12T08:06:26.708Z,99398.03
2023-02-12T08:08:57.156Z,99379.25
2023-02-12T08:11:27.379Z,99377.84
2023-02-12T08:13:55.258Z,99376.47
2023-02-12T08:16:25.212Z,99386.69
2023-02-12T08:18:53.506Z,99370.97
2023-02-12T08:21:25.871Z,99383.16
2023-02-12T08:23:59.118Z,99381.69
2023-02-12T08:26:32.873Z,99375.50
2023-02-12T08:29:03.127Z,99380.53
2023-02-12T08:31:33.210Z,99379.41
2023-02-12T08:34:04.192Z,99372.03
2023-02-12T08:36:39.465Z,99371.03
2023-02-12T08:39:08.662Z,99375.00
2023-02-12T08:41:36.018Z,99357.28
2023-02-12T08:44:05.047Z,99355.50
2023-02-12T08:46:38.688Z,99353.50
2023-02-12T08:49:13.049Z,99374.56
2023-02-12T08:51:49.117Z,99374.13
2023-02-12T08:54:20.094Z,99391.94
2023-02-12T08:56:47.984Z,99390.03
2023-02-12T08:59:16.762Z,99386.19
2023-02-12T09:01:44.930Z,99392.09
2023-02-12T09:04:18.856Z,99400.31
2023-02-12T09:06:47.114Z,99390.56
2023-02-12T09:09:14.684Z,99395.84
2023-02-12T09:11:42.767Z,99396.84
2023-02-12T09:14:14.268Z,99406.28
2023-02-12T09:16:42.823Z,99404.72
2023-02-12T09:19:13.478Z,99402.31
2023-02-12T09:21:41.674Z,99413.13
2023-02-12T09:24:09.315Z,99402.75
2023-02-12T09:26:36.535Z,99411.56
2023-02-12T09:29:04.748Z,99421.94
2023-02-12T09:31:33.279Z,99420.13
2023-02-12T09:34:03.466Z,99427.56
2023-02-12T09:36:32.030Z,99414.78
2023-02-12T09:39:00.060Z,99423.63
2023-02-12T09:41:39.361Z,99422.69
2023-02-12T09:44:51.122Z,99428.00
2023-02-12T09:47:27.417Z,99432.59
2023-02-12T09:50:18.030Z,99419.34
2023-02-12T09:52:45.158Z,99420.88
2023-02-12T09:55:16.696Z,99415.22
2023-02-12T09:57:44.595Z,99424.41
2023-02-12T10:00:31.613Z,99423.91
2023-02-12T10:03:05.722Z,99437.56
2023-02-12T10:05:41.754Z,99431.13
2023-02-12T10:08:46.907Z,99415.19
2023-02-12T10:11:53.332Z,99431.50
2023-02-12T10:14:37.570Z,99424.78
2023-02-12T10:17:17.826Z,99416.94
2023-02-12T10:20:03.031Z,99433.19
2023-02-12T10:23:15.205Z,99439.38
2023-02-12T10:25:53.021Z,99435.19
2023-02-12T10:28:28.618Z,99428.44
2023-02-12T10:31:02.782Z,99426.06
2023-02-12T10:33:32.142Z,99440.59
2023-02-12T10:36:13.789Z,99440.38
2023-02-12T10:38:46.957Z,99449.47
2023-02-12T10:41:17.333Z,99429.94
2023-02-12T10:43:44.496Z,99440.38
2023-02-12T10:46:17.925Z,99432.25
2023-02-12T10:48:48.262Z,99431.38
2023-02-12T10:51:40.333Z,99447.25
2023-02-12T10:54:43.657Z,99448.06
2023-02-12T10:57:25.434Z,99445.56
2023-02-12T10:59:57.347Z,99442.84
2023-02-12T11:02:33.028Z,99448.69
2023-02-12T11:05:15.905Z,99445.50
2023-02-12T11:07:51.366Z,99456.28
2023-02-12T11:10:27.411Z,99454.97
2023-02-12T11:12:55.290Z,99455.78
2023-02-12T11:15:27.758Z,99443.81
2023-02-12T11:18:05.496Z,99447.66
2023-02-12T11:20:50.910Z,99461.75
2023-02-12T11:23:33.538Z,99444.03
2023-02-12T11:26:01.985Z,99450.72
2023-02-12T11:28:30.966Z,99446.78
2023-02-12T11:31:00.080Z,99457.50
2023-02-12T11:33:31.149Z,99444.88
2023-02-12T11:36:23.419Z,99454.91
2023-02-12T11:38:54.863Z,99452.44
2023-02-12T11:41:38.366Z,99456.53
2023-02-12T11:44:38.508Z,99442.41
2023-02-12T11:47:10.832Z,99449.69
2023-02-12T11:49:48.666Z,99448.53
2023-02-12T11:52:28.693Z,99447.47
2023-02-12T11:55:00.729Z,99462.84
2023-02-12T11:57:39.324Z,99455.63
2023-02-12T12:00:21.183Z,99461.47
2023-02-12T12:03:20.887Z,99441.59
2023-02-12T12:06:08.414Z,99444.72
2023-02-12T12:08:44.167Z,99467.81
2023-02-12T12:11:16.929Z,99468.13
2023-02-12T12:13:56.182Z,99453.69
2023-02-12T12:16:50.428Z,99454.31
2023-02-12T12:19:47.045Z,99455.06
2023-02-12T12:22:30.482Z,99457.28
2023-02-12T12:25:17.700Z,99462.34
2023-02-12T12:28:03.506Z,99452.06
2023-02-12T12:30:52.191Z,99468.03
2023-02-12T12:33:56.991Z,99460.19
2023-02-12T12:37:06.309Z,99446.94
2023-02-12T12:39:47.289Z,99452.00
2023-02-12T12:42:52.498Z,99460.69
2023-02-12T12:45:51.522Z,99455.34
2023-02-12T12:48:37.197Z,99456.59
2023-02-12T12:51:19.221Z,99452.03
2023-02-12T12:53:58.912Z,99455.91
2023-02-12T12:56:34.674Z,99452.84
2023-02-12T12:59:21.117Z,99458.97
2023-02-12T13:02:01.539Z,99460.84
2023-02-12T13:04:31.795Z,99454.84
2023-02-12T13:07:29.781Z,99452.16
2023-02-12T13:10:13.775Z,99459.06
2023-02-12T13:12:55.522Z,99461.75
2023-02-12T13:16:00.669Z,99461.63
2023-02-12T13:19:06.782Z,99462.06
2023-02-12T13:21:43.110Z,99467.41
2023-02-12T13:24:48.327Z,99473.53
2023-02-12T13:27:29.147Z,99478.69
2023-02-12T13:30:17.575Z,99477.53
2023-02-12T13:32:50.929Z,99467.06
2023-02-12T13:35:24.288Z,99461.72
2023-02-12T13:37:54.581Z,99468.03
2023-02-12T13:40:30.482Z,99458.41
2023-02-12T13:43:14.399Z,99455.66
2023-02-12T13:45:53.958Z,99456.81
2023-02-12T13:48:41.821Z,99454.97
2023-02-12T13:51:23.987Z,99455.13
2023-02-12T13:54:13.627Z,99476.88
2023-02-12T13:56:52.695Z,99489.84
2023-02-12T13:59:55.857Z,99496.63
2023-02-12T14:02:34.792Z,99495.34
2023-02-12T14:05:16.250Z,99494.38
2023-02-12T14:07:49.855Z,99506.81
2023-02-12T14:10:36.295Z,99505.19
2023-02-12T14:13:09.539Z,99514.09
2023-02-12T14:15:41.292Z,99494.00
2023-02-12T14:18:28.310Z,99507.19
2023-02-12T14:21:13.827Z,99506.00
2023-02-12T14:23:50.960Z,99480.56
2023-02-12T14:26:20.472Z,99489.44
2023-02-12T14:28:55.607Z,99514.34
2023-02-12T14:31:35.545Z,99500.38
2023-02-12T14:34:05.360Z,99508.34
2023-02-12T14:36:32.404Z,99511.47
2023-02-12T14:39:03.505Z,99525.53
2023-02-12T14:41:39.294Z,99512.28
2023-02-12T14:44:18.697Z,99504.50
2023-02-12T14:47:17.673Z,99508.75
2023-02-12T14:49:52.557Z,99514.16
2023-02-12T14:52:25.676Z,99498.34
2023-02-12T14:54:57.083Z,99523.19
2023-02-12T14:57:37.059Z,99517.16
2023-02-12T15:00:13.204Z,99521.81
2023-02-12T15:02:42.387Z,99531.09
2023-02-12T15:05:26.214Z,99528.13
2023-02-12T15:07:58.673Z,99528.94
2023-02-12T15:10:32.285Z,99528.66
2023-02-12T15:13:08.864Z,99537.34
2023-02-12T15:16:02.716Z,99531.38
2023-02-12T15:18:43.096Z,99539.50
2023-02-12T15:21:31.800Z,99540.00
2023-02-12T15:24:07.770Z,99541.41
2023-02-12T15:26:45.196Z,99547.38
2023-02-12T15:29:21.659Z,99566.41
2023-02-12T15:31:58.054Z,99571.34
2023-02-12T15:34:29.310Z,99577.34
2023-02-12T15:37:02.306Z,99580.78
2023-02-12T15:39:40.055Z,99586.72
2023-02-12T15:42:24.831Z,99597.38
2023-02-12T15:44:52.441Z,99608.19
2023-02-12T15:47:24.913Z,99611.63
2023-02-12T15:50:00.425Z,99618.09
2023-02-12T15:52:41.968Z,99617.91
2023-02-12T15:55:17.281Z,99627.88
2023-02-12T15:57:50.802Z,99628.34
2023-02-12T16:00:42.144Z,99636.63
2023-02-12T16:03:40.994Z,99649.19
2023-02-12T16:06:17.793Z,99648.56
2023-02-12T16:08:48.578Z,99655.63
2023-02-12T16:11:20.896Z,99669.44
2023-02-12T16:13:52.595Z,99661.38
2023-02-12T16:16:27.383Z,99666.91
2023-02-12T16:19:06.654Z,99665.59
2023-02-12T16:21:39.134Z,99650.47
2023-02-12T16:24:26.797Z,99672.53
2023-02-12T16:26:55.407Z,99673.28
2023-02-12T16:29:22.731Z,99680.25
2023-02-12T16:32:03.614Z,99679.25
2023-02-12T16:34:38.491Z,99691.06
2023-02-12T16:37:37.371Z,99697.94
2023-02-12T16:40:07.790Z,99698.47
2023-02-12T16:42:35.227Z,99697.75
2023-02-12T16:45:02.321Z,99713.75
2023-02-12T16:47:29.629Z,99715.56
2023-02-12T16:50:02.479Z,99727.53
2023-02-12T16:52:38.691Z,99728.97
2023-02-12T16:55:13.311Z,99735.78
2023-02-12T16:57:41.153Z,99742.72
2023-02-12T17:00:12.936Z,99753.41
2023-02-12T17:02:40.149Z,99755.78
2023-02-12T17:05:07.796Z,99759.25
2023-02-12T17:07:35.416Z,99762.09
2023-02-12T17:10:02.572Z,99768.28
2023-02-12T17:12:30.351Z,99771.19
2023-02-12T17:14:57.313Z,99775.16
2023-02-12T17:17:24.677Z,99774.53
2023-02-12T17:19:53.581Z,99774.06
2023-02-12T17:22:24.817Z,99791.50
2023-02-12T17:24:53.468Z,99784.53
2023-02-12T17:27:21.030Z,99776.38
2023-02-12T17:29:48.368Z,99780.06
2023-02-12T17:32:16.469Z,99790.22
2023-02-12T17:34:48.733Z,99789.94
2023-02-12T17:37:17.984Z,99789.00
2023-02-12T17:39:45.105Z,99793.34
2023-02-12T17:42:12.390Z,99802.06
2023-02-12T17:44:40.254Z,99804.34
2023-02-12T17:47:07.610Z,99813.03
2023-02-12T17:49:35.731Z,99818.25
2023-02-12T17:52:04.156Z,99814.44
2023-02-12T17:54:32.808Z,99817.50
2023-02-12T17:56:59.805Z,99816.56
2023-02-12T17:59:27.226Z,99811.16
2023-02-12T18:01:56.293Z,99815.72
2023-02-12T18:04:23.302Z,99816.63
2023-02-12T18:06:50.338Z,99823.63
2023-02-12T18:09:17.362Z,99827.59
2023-02-12T18:11:44.664Z,99824.97
2023-02-12T18:14:12.218Z,99823.81
2023-02-12T18:16:39.433Z,99830.91
2023-02-12T18:19:06.830Z,99835.06
2023-02-12T18:21:35.248Z,99835.75
2023-02-12T18:24:03.875Z,99840.06
2023-02-12T18:26:31.281Z,99850.63
2023-02-12T18:28:59.904Z,99851.50
2023-02-12T18:31:27.803Z,99854.19
2023-02-12T18:33:55.454Z,99854.31
2023-02-12T18:36:23.168Z,99854.13
2023-02-12T18:38:52.904Z,99861.03
2023-02-12T18:41:25.306Z,99863.88
2023-02-12T18:43:53.996Z,99869.22
2023-02-12T18:46:23.576Z,99868.44
2023-02-12T18:48:52.095Z,99860.53
2023-02-12T18:51:22.701Z,99871.38
2023-02-12T18:54:02.912Z,99870.47
2023-02-12T18:56:33.449Z,99870.47
2023-02-12T18:59:04.719Z,99878.53
2023-02-12T19:01:34.448Z,99874.91
2023-02-12T19:04:03.129Z,99881.13
2023-02-12T19:06:32.292Z,99874.63
2023-02-12T19:09:01.913Z,99885.13
2023-02-12T19:11:29.419Z,99884.22
2023-02-12T19:13:57.214Z,99887.88
2023-02-12T19:16:25.335Z,99898.59
2023-02-12T19:18:58.712Z,99895.06
2023-02-12T19:21:26.535Z,99896.75
2023-02-12T19:23:55.204Z,99906.44
2023-02-12T19:26:23.071Z,99898.84
2023-02-12T19:28:50.315Z,99907.00
2023-02-12T19:31:23.958Z,99903.78
2023-02-12T19:33:55.889Z,99900.81
2023-02-12T19:36:23.805Z,99909.03
2023-02-12T19:38:50.959Z,99913.47
2023-02-12T19:41:20.566Z,99916.03
2023-02-12T19:43:48.082Z,99927.38
2023-02-12T19:46:20.027Z,99918.63
2023-02-12T19:48:48.227Z,99919.50
2023-02-12T19:51:21.214Z,99927.41
2023-02-12T19:53:49.181Z,99926.50
2023-02-12T19:56:16.676Z,99924.47
2023-02-12T19:58:44.765Z,99918.13
2023-02-12T20:01:17.760Z,99914.56
2023-02-12T20:03:46.148Z,99915.16
2023-02-12T20:06:35.446Z,99922.22
2023-02-12T20:09:04.260Z,99921.44
2023-02-12T20:11:33.111Z,99919.06
2023-02-12T20:14:02.500Z,99926.81
2023-02-12T20:16:38.090Z,99929.19
2023-02-12T20:19:15.231Z,99925.50
2023-02-12T20:21:43.432Z,99934.31
2023-02-12T20:24:10.611Z,99925.13
2023-02-12T20:26:38.417Z,99932.88
2023-02-12T20:29:05.807Z,99927.59
2023-02-12T20:31:37.873Z,99938.78
2023-02-12T20:34:08.256Z,99930.69
2023-02-12T20:36:38.522Z,99933.38
2023-02-12T20:39:07.997Z,99953.03
2023-02-12T20:41:37.360Z,99949.50
2023-02-12T20:44:11.613Z,99948.66
2023-02-12T20:46:42.786Z,99950.97
2023-02-12T20:49:14.728Z,99945.72
2023-02-12T20:51:42.415Z,99944.91
2023-02-12T20:54:10.074Z,99951.25
2023-02-12T20:56:38.778Z,99951.28
2023-02-12T20:59:07.079Z,99950.28
2023-02-12T21:01:39.474Z,99962.59
2023-02-12T21:04:09.657Z,99947.78
2023-02-12T21:06:37.129Z,99958.47
2023-02-12T21:09:04.765Z,99961.09
2023-02-12T21:11:32.498Z,99962.75
2023-02-12T21:14:18.510Z,99956.72
2023-02-12T21:16:47.929Z,99960.81
2023-02-12T21:19:14.876Z,99963.97
2023-02-12T21:21:45.468Z,99967.19
2023-02-12T21:24:15.677Z,99974.97
2023-02-12T21:26:43.402Z,99965.91
2023-02-12T21:29:10.669Z,99972.06
2023-02-12T21:31:41.483Z,99967.44
2023-02-12T21:34:13.558Z,99971.84
2023-02-12T21:36:42.334Z,99963.47
2023-02-12T21:39:11.825Z,99974.13
2023-02-12T21:41:41.097Z,99965.06
2023-02-12T21:44:14.042Z,99976.88
2023-02-12T21:46:41.915Z,99977.03
2023-02-12T21:49:09.570Z,99993.59
2023-02-12T21:51:39.572Z,99994.25
2023-02-12T21:54:13.684Z,100003.13
2023-02-12T21:56:42.310Z,100000.69
2023-02-12T21:59:09.865Z,100001.56
2023-02-12T22:01:41.429Z,99998.28
2023-02-12T22:04:09.793Z,100002.38
2023-02-12T22:06:42.960Z,100010.38
2023-02-12T22:09:11.820Z,100008.63
2023-02-12T22:11:40.348Z,100008.28
2023-02-12T22:14:11.143Z,100007.31
2023-02-12T22:16:38.239Z,100012.41
2023-02-12T22:19:05.797Z,100010.81
2023-02-12T22:21:36.734Z,100017.13
2023-02-12T22:24:06.743Z,100012.78
2023-02-12T22:26:34.557Z,100020.53
2023-02-12T22:29:06.137Z,100009.78
2023-02-12T22:31:35.965Z,100017.88
2023-02-12T22:34:06.756Z,100015.16
2023-02-12T22:36:36.187Z,100022.13
2023-02-12T22:39:04.039Z,100031.00
2023-02-12T22:41:32.774Z,100016.88
2023-02-12T22:44:01.474Z,100017.97
2023-02-12T22:46:28.963Z,100020.84
2023-02-12T22:48:56.501Z,100020.88
2023-02-12T22:51:28.921Z,100022.50
2023-02-12T22:53:57.876Z,100031.47
2023-02-12T22:56:26.172Z,100018.28
2023-02-12T22:58:58.768Z,100028.69
2023-02-12T23:01:27.308Z,100027.75
2023-02-12T23:03:55.076Z,100027.84
2023-02-12T23:06:25.766Z,100030.00
2023-02-12T23:08:55.209Z,100036.19
2023-02-12T23:11:24.724Z,100036.25
2023-02-12T23:13:52.733Z,100037.97
2023-02-12T23:16:20.773Z,100040.94
2023-02-12T23:18:48.439Z,100038.25
2023-02-12T23:21:15.547Z,100049.00
2023-02-12T23:23:42.644Z,100049.38
2023-02-12T23:26:09.728Z,100050.22
2023-02-12T23:28:36.817Z,100048.28
2023-02-12T23:31:04.032Z,100043.03
2023-02-12T23:33:31.244Z,100041.41
2023-02-12T23:35:58.216Z,100057.13
2023-02-12T23:38:25.353Z,100043.72
2023-02-12T23:40:52.331Z,100044.03
2023-02-12T23:43:19.301Z,100051.19
2023-02-12T23:45:47.052Z,100057.38
2023-02-12T23:48:15.205Z,100049.38
2023-02-12T23:50:42.565Z,100042.09
2023-02-12T23:53:11.296Z,100053.59
2023-02-12T23:55:39.341Z,100051.81
2023-02-12T23:58:07.295Z,100056.28
